Time;durP1;ratioP1;P1;durP2;ratioP2;P2;SDS_P1;SDS_P2;PMS_P1;PMS_P2;Temp;Humidity;BMP_temperature;BMP_pressure;BME280_temperature;BME280_humidity;BME280_pressure;Samples;Min_cycle;Max_cycle;Signal;HPM_P1;HPM_P2
2021/01/22 00:00:53;;;;;;;147.93;71.37;;;-0.50;99.90;;;;;;4175108;28;20315;-62
2021/01/22 00:02:54;;;;;;;159.67;75.53;;;-0.40;99.90;;;;;;4174536;28;20324;-65
2021/01/22 00:04:55;;;;;;;147.60;72.87;;;-0.40;99.90;;;;;;4174886;28;20266;-64
2021/01/22 00:06:57;;;;;;;152.27;69.47;;;-0.40;99.90;;;;;;4175970;28;20266;-63
2021/01/22 00:08:58;;;;;;;142.37;70.10;;;-0.40;99.90;;;;;;4174748;28;21081;-62
2021/01/22 00:10:59;;;;;;;152.70;71.30;;;-0.30;99.90;;;;;;4176170;28;20336;-62
2021/01/22 00:13:00;;;;;;;140.07;68.80;;;-0.30;99.90;;;;;;4174041;28;20359;-63
2021/01/22 00:15:02;;;;;;;138.20;68.60;;;-0.20;99.90;;;;;;4176064;28;20282;-63
2021/01/22 00:17:04;;;;;;;135.77;62.00;;;-0.20;99.90;;;;;;4156683;28;20791;-62
2021/01/22 00:19:05;;;;;;;135.20;65.93;;;-0.20;99.90;;;;;;4175672;28;20347;-62
2021/01/22 00:21:06;;;;;;;153.40;71.87;;;-0.20;99.90;;;;;;4174761;28;20258;-63
2021/01/22 00:23:07;;;;;;;154.17;74.37;;;-0.20;99.90;;;;;;4175246;28;20266;-63
2021/01/22 00:25:09;;;;;;;148.83;71.13;;;-0.30;99.90;;;;;;4175521;28;20355;-63
2021/01/22 00:27:10;;;;;;;158.27;73.10;;;-0.30;99.90;;;;;;4174533;28;20296;-63
2021/01/22 00:29:11;;;;;;;156.27;70.53;;;-0.40;99.90;;;;;;4175349;28;20720;-63
2021/01/22 00:31:12;;;;;;;146.63;70.10;;;-0.40;99.90;;;;;;4173968;28;20254;-62
2021/01/22 00:33:14;;;;;;;143.33;68.37;;;-0.50;99.90;;;;;;4174780;28;20302;-62
2021/01/22 00:35:15;;;;;;;140.03;63.13;;;-0.50;99.90;;;;;;4174773;28;21027;-62
2021/01/22 00:37:16;;;;;;;165.43;77.97;;;-0.50;99.90;;;;;;4175801;28;20274;-63
2021/01/22 00:39:18;;;;;;;160.87;76.53;;;-0.50;99.90;;;;;;4174483;28;20278;-64
2021/01/22 00:41:19;;;;;;;169.17;77.03;;;-0.60;99.90;;;;;;4175446;28;20356;-64
2021/01/22 00:43:20;;;;;;;164.63;77.10;;;-0.50;99.90;;;;;;4173834;28;20705;-64
2021/01/22 00:45:21;;;;;;;133.67;62.63;;;-0.50;99.90;;;;;;4175432;28;20266;-63
2021/01/22 00:47:23;;;;;;;126.37;57.77;;;-0.40;99.90;;;;;;4174130;28;20323;-63
2021/01/22 00:49:24;;;;;;;120.20;56.37;;;-0.40;99.90;;;;;;4173972;28;20294;-64
2021/01/22 00:51:26;;;;;;;118.30;56.13;;;-0.40;99.90;;;;;;4174158;28;20658;-63
2021/01/22 00:53:27;;;;;;;116.23;56.53;;;-0.40;99.90;;;;;;4174716;28;20290;-63
2021/01/22 00:55:30;;;;;;;138.50;65.57;;;-0.30;99.90;;;;;;4174481;28;20263;-63
2021/01/22 00:57:31;;;;;;;141.43;65.93;;;-0.30;99.90;;;;;;4174472;28;20324;-63
2021/01/22 00:59:32;;;;;;;133.73;62.70;;;-0.30;99.90;;;;;;4173574;28;20270;-64
2021/01/22 01:01:34;;;;;;;141.20;66.90;;;-0.30;99.90;;;;;;4174067;28;20278;-63
2021/01/22 01:03:35;;;;;;;144.37;66.00;;;-0.30;99.90;;;;;;4175979;28;20688;-64
2021/01/22 01:05:36;;;;;;;138.93;65.37;;;-0.30;99.90;;;;;;4173727;28;20320;-64
2021/01/22 01:07:38;;;;;;;131.40;63.70;;;-0.30;99.90;;;;;;4175061;28;20290;-64
2021/01/22 01:09:39;;;;;;;154.33;67.47;;;-0.30;99.90;;;;;;4172796;28;20282;-64
2021/01/22 01:11:41;;;;;;;128.37;61.60;;;-0.40;99.90;;;;;;4175171;28;20906;-65
2021/01/22 01:13:42;;;;;;;130.97;60.93;;;-0.40;99.90;;;;;;4173692;28;20320;-63
2021/01/22 01:15:43;;;;;;;123.73;60.43;;;-0.40;99.90;;;;;;4175079;28;20274;-63
2021/01/22 01:17:44;;;;;;;120.30;59.90;;;-0.40;99.90;;;;;;4173189;28;20922;-63
2021/01/22 01:19:46;;;;;;;125.90;60.83;;;-0.40;99.90;;;;;;4175025;28;20335;-64
2021/01/22 01:21:47;;;;;;;123.93;57.57;;;-0.40;99.90;;;;;;4173344;28;20254;-64
2021/01/22 01:23:48;;;;;;;131.93;60.60;;;-0.40;99.90;;;;;;4174672;28;20800;-64
2021/01/22 01:25:49;;;;;;;116.87;53.50;;;-0.50;99.90;;;;;;4174144;28;20247;-64
2021/01/22 01:27:50;;;;;;;118.77;58.47;;;-0.50;99.90;;;;;;4174407;28;20255;-64
2021/01/22 01:29:51;;;;;;;134.30;58.77;;;-0.60;99.90;;;;;;4173985;28;20761;-64
2021/01/22 01:31:52;;;;;;;119.97;55.67;;;-0.60;99.90;;;;;;4173572;28;20742;-64
2021/01/22 01:33:53;;;;;;;129.30;58.17;;;-0.70;99.90;;;;;;4174122;28;20347;-64
2021/01/22 01:35:55;;;;;;;129.67;59.37;;;-0.90;99.90;;;;;;4173896;28;20278;-64
2021/01/22 01:37:56;;;;;;;125.37;58.63;;;-1.00;99.90;;;;;;4174599;28;20273;-64
2021/01/22 01:39:57;;;;;;;119.20;54.93;;;-1.00;99.90;;;;;;4171934;28;20286;-63
2021/01/22 01:41:58;;;;;;;129.10;59.27;;;-1.10;99.90;;;;;;4173737;28;20294;-63
2021/01/22 01:44:00;;;;;;;122.20;56.97;;;-1.20;99.90;;;;;;4173405;28;20753;-64
2021/01/22 01:46:01;;;;;;;107.77;51.57;;;-1.20;99.90;;;;;;4174701;28;20285;-64
2021/01/22 01:48:02;;;;;;;112.63;48.27;;;-1.20;99.90;;;;;;4173100;28;20282;-65
2021/01/22 01:50:04;;;;;;;93.60;44.17;;;-1.20;99.90;;;;;;4174608;28;20327;-64
2021/01/22 01:52:06;;;;;;;105.80;48.53;;;-1.10;99.90;;;;;;4171715;28;20300;-64
2021/01/22 01:54:07;;;;;;;107.63;49.40;;;-1.10;99.90;;;;;;4173756;28;20282;-63
2021/01/22 01:56:09;;;;;;;110.93;50.23;;;-1.10;99.90;;;;;;4173755;28;20324;-63
2021/01/22 01:58:12;;;;;;;106.63;49.80;;;-1.10;99.90;;;;;;4173094;28;20300;-64
2021/01/22 02:00:14;;;;;;;105.73;48.10;;;-1.10;99.90;;;;;;4173322;28;20250;-64
2021/01/22 02:02:15;;;;;;;100.50;48.20;;;-1.10;99.90;;;;;;4172848;28;20713;-64
2021/01/22 02:04:17;;;;;;;104.90;46.80;;;-1.00;99.90;;;;;;4174043;28;20270;-64
2021/01/22 02:06:18;;;;;;;103.47;48.27;;;-1.10;99.90;;;;;;4172965;28;20278;-64
2021/01/22 02:08:20;;;;;;;115.60;49.83;;;-1.10;99.90;;;;;;4173011;28;20282;-65
2021/01/22 02:10:21;;;;;;;115.43;54.90;;;-1.10;99.90;;;;;;4171451;28;20324;-64
2021/01/22 02:12:22;;;;;;;115.30;54.27;;;-1.20;99.90;;;;;;4174450;28;20323;-63
2021/01/22 02:14:25;;;;;;;118.53;54.13;;;-1.20;99.90;;;;;;4172979;28;20257;-63
2021/01/22 02:16:26;;;;;;;116.87;55.50;;;-1.30;99.90;;;;;;4172349;28;20270;-63
2021/01/22 02:18:29;;;;;;;114.97;52.87;;;-1.30;99.90;;;;;;4172683;28;20323;-65
2021/01/22 02:20:40;;;;;;;101.97;48.43;;;-1.30;99.90;;;;;;4174112;28;20266;-66
2021/01/22 02:22:41;;;;;;;;;;;-1.30;99.90;;;;;;4173043;28;20270;-63
2021/01/22 02:24:43;;;;;;;;;;;-1.20;99.90;;;;;;4158475;28;19913;-64
2021/01/22 02:26:55;;;;;;;107.47;47.60;;;-1.20;99.90;;;;;;4156545;28;19959;-63
2021/01/22 02:29:06;;;;;;;100.80;46.47;;;-1.10;99.90;;;;;;4157599;28;20275;-63
2021/01/22 02:31:09;;;;;;;109.30;48.60;;;-1.10;99.90;;;;;;4155814;28;20601;-64
2021/01/22 02:33:15;;;;;;;109.03;48.93;;;-1.10;99.90;;;;;;4171406;28;20041;-65
2021/01/22 02:35:20;;;;;;;102.53;49.00;;;-1.10;99.90;;;;;;4172962;28;20323;-66
2021/01/22 02:37:23;;;;;;;104.23;48.67;;;-1.10;99.90;;;;;;4173690;28;20741;-64
2021/01/22 02:39:27;;;;;;;105.83;49.00;;;-1.10;99.90;;;;;;4173006;28;20324;-63
2021/01/22 02:41:31;;;;;;;105.20;49.13;;;-1.10;99.90;;;;;;4173005;28;20298;-64
2021/01/22 02:43:33;;;;;;;107.67;47.87;;;-1.10;99.90;;;;;;4173165;28;20273;-63
2021/01/22 02:45:34;;;;;;;104.73;47.67;;;-1.10;99.90;;;;;;4172517;28;20419;-63
2021/01/22 02:47:36;;;;;;;106.30;50.43;;;-1.10;99.90;;;;;;4173599;28;20286;-64
2021/01/22 02:49:38;;;;;;;100.83;47.03;;;-1.10;99.90;;;;;;4172613;28;20989;-65
2021/01/22 02:51:39;;;;;;;99.33;46.17;;;-1.00;99.90;;;;;;4173884;28;20266;-64
2021/01/22 02:53:40;;;;;;;97.73;44.87;;;-1.00;99.90;;;;;;4175140;28;20298;-64
2021/01/22 02:55:42;;;;;;;103.40;48.90;;;-1.10;99.90;;;;;;4177630;28;20286;-64
2021/01/22 02:57:56;;;;;;;102.10;46.00;;;-1.10;99.90;;;;;;4175681;28;20274;-64
2021/01/22 03:00:16;;;;;;;89.43;42.30;;;-1.10;99.90;;;;;;4176966;28;20296;-64
2021/01/22 03:02:22;;;;;;;88.67;41.80;;;-1.10;99.90;;;;;;4175568;28;20332;-64
2021/01/22 03:04:26;;;;;;;95.37;44.27;;;-1.00;99.90;;;;;;4175510;28;20739;-64
2021/01/22 03:06:33;;;;;;;98.73;48.23;;;-1.10;99.90;;;;;;4175714;28;20273;-64
2021/01/22 03:08:35;;;;;;;101.23;46.07;;;-1.10;99.90;;;;;;4177463;28;20427;-64
2021/01/22 03:10:37;;;;;;;99.17;46.73;;;-1.20;99.90;;;;;;4173816;28;20320;-63
2021/01/22 03:12:40;;;;;;;93.27;45.47;;;-1.20;99.90;;;;;;4176570;28;20277;-64
2021/01/22 03:14:42;;;;;;;87.73;41.70;;;-1.20;99.90;;;;;;4175364;28;20274;-64
2021/01/22 03:16:44;;;;;;;80.37;36.50;;;-1.20;99.90;;;;;;4176576;28;20300;-65
2021/01/22 03:19:02;;;;;;;86.53;41.07;;;-1.10;99.90;;;;;;4175625;28;20277;-64
2021/01/22 03:21:09;;;;;;;87.80;41.07;;;-1.10;99.90;;;;;;4176796;28;20661;-63
2021/01/22 03:23:12;;;;;;;130.50;52.47;;;-1.00;99.90;;;;;;4174425;28;20285;-64
2021/01/22 03:25:13;;;;;;;86.97;41.47;;;-1.00;99.90;;;;;;4177083;28;20804;-64
2021/01/22 03:27:17;;;;;;;93.60;43.63;;;-1.00;99.90;;;;;;4175344;28;20323;-64
2021/01/22 03:29:19;;;;;;;119.40;51.50;;;-1.00;99.90;;;;;;4176186;28;20262;-64
2021/01/22 03:31:20;;;;;;;220.43;89.07;;;-1.00;99.90;;;;;;4175409;28;20293;-64
2021/01/22 03:33:21;;;;;;;185.00;80.07;;;-1.00;99.90;;;;;;4175447;28;20347;-65
2021/01/22 03:35:22;;;;;;;123.10;54.83;;;-1.00;99.90;;;;;;4175797;28;20319;-64
2021/01/22 03:37:23;;;;;;;126.60;57.73;;;-1.00;99.90;;;;;;4174549;28;20258;-64
2021/01/22 03:39:25;;;;;;;164.53;74.97;;;-1.10;99.90;;;;;;4175788;28;20344;-65
2021/01/22 03:41:26;;;;;;;147.33;67.40;;;-1.10;99.90;;;;;;4175420;28;20745;-65
2021/01/22 03:43:27;;;;;;;170.23;78.87;;;-1.10;99.90;;;;;;4176644;28;20516;-65
2021/01/22 03:45:28;;;;;;;117.23;55.47;;;-1.10;99.90;;;;;;4174895;28;20331;-64
2021/01/22 03:47:29;;;;;;;97.70;46.77;;;-1.10;99.90;;;;;;4175981;28;20278;-64
2021/01/22 03:49:32;;;;;;;111.03;52.73;;;-1.00;99.90;;;;;;4175396;28;20278;-65
2021/01/22 03:51:33;;;;;;;76.17;35.23;;;-1.00;99.90;;;;;;4176476;28;20308;-65
2021/01/22 03:53:35;;;;;;;77.17;38.60;;;-1.00;99.90;;;;;;4174763;28;20712;-64
2021/01/22 03:55:36;;;;;;;107.13;50.13;;;-0.90;99.90;;;;;;4176360;28;20745;-63
2021/01/22 03:57:37;;;;;;;145.40;71.47;;;-0.90;99.90;;;;;;4174807;28;20324;-62
2021/01/22 03:59:39;;;;;;;151.60;74.63;;;-0.90;99.90;;;;;;4175315;28;20825;-63
2021/01/22 04:01:40;;;;;;;102.57;48.33;;;-0.90;99.90;;;;;;4174534;28;20266;-63
2021/01/22 04:03:41;;;;;;;111.40;50.83;;;-0.90;99.90;;;;;;4174887;28;20443;-63
2021/01/22 04:05:42;;;;;;;91.70;44.20;;;-0.90;99.90;;;;;;4175417;28;20269;-63
2021/01/22 04:07:43;;;;;;;93.20;42.00;;;-0.90;99.90;;;;;;4175259;28;20278;-63
2021/01/22 04:09:45;;;;;;;82.90;40.33;;;-0.90;99.90;;;;;;4175496;28;20354;-65
2021/01/22 04:11:46;;;;;;;78.63;38.53;;;-0.90;99.90;;;;;;4174624;28;20734;-64
2021/01/22 04:13:48;;;;;;;91.23;45.03;;;-0.90;99.90;;;;;;4175738;28;20932;-64
2021/01/22 04:15:49;;;;;;;83.77;43.40;;;-0.80;99.90;;;;;;4174439;28;20282;-65
2021/01/22 04:17:50;;;;;;;99.13;49.27;;;-0.80;99.90;;;;;;4176790;28;20331;-65
2021/01/22 04:19:52;;;;;;;97.67;46.87;;;-0.80;99.90;;;;;;4174587;28;20746;-64
2021/01/22 04:21:58;;;;;;;100.80;48.00;;;-0.90;99.90;;;;;;4175660;28;20316;-64
2021/01/22 04:23:59;;;;;;;105.87;48.93;;;-0.90;99.90;;;;;;4174766;28;20320;-64
2021/01/22 04:26:00;;;;;;;112.87;52.87;;;-0.90;99.90;;;;;;4176467;28;20263;-65
2021/01/22 04:28:02;;;;;;;112.67;55.30;;;-1.00;99.90;;;;;;4174108;28;20265;-64
2021/01/22 04:30:03;;;;;;;113.80;56.23;;;-1.00;99.90;;;;;;4175561;28;20799;-64
2021/01/22 04:32:06;;;;;;;110.80;52.07;;;-1.00;99.90;;;;;;4174509;28;20305;-64
2021/01/22 04:34:08;;;;;;;96.20;47.90;;;-1.10;99.90;;;;;;4173930;28;20340;-64
2021/01/22 04:36:09;;;;;;;96.80;48.37;;;-1.10;99.90;;;;;;4174946;28;20312;-64
2021/01/22 04:38:10;;;;;;;97.97;50.00;;;-1.10;99.90;;;;;;4175081;28;20262;-65
2021/01/22 04:40:12;;;;;;;89.27;46.37;;;-1.10;99.90;;;;;;4174811;28;20278;-64
2021/01/22 04:42:13;;;;;;;89.10;44.03;;;-1.00;99.90;;;;;;4174428;28;20328;-65
2021/01/22 04:44:15;;;;;;;94.00;43.90;;;-1.00;99.90;;;;;;4173942;28;20746;-64
2021/01/22 04:46:16;;;;;;;96.13;44.63;;;-0.90;99.90;;;;;;4171385;28;20281;-63
2021/01/22 04:48:19;;;;;;;85.63;41.57;;;-0.90;99.90;;;;;;4175363;28;20265;-63
2021/01/22 04:50:21;;;;;;;75.43;36.63;;;-0.90;99.90;;;;;;4173561;28;20324;-64
2021/01/22 04:52:23;;;;;;;65.87;31.70;;;-1.00;99.90;;;;;;4174803;28;20320;-64
2021/01/22 04:54:32;;;;;;;69.07;34.70;;;-0.90;99.90;;;;;;4173718;28;20293;-64
2021/01/22 04:56:43;;;;;;;66.63;33.03;;;-0.80;99.90;;;;;;4175820;28;20270;-64
2021/01/22 04:58:51;;;;;;;69.20;33.25;;;-0.80;99.90;;;;;;4174054;28;20266;-65
2021/01/22 05:00:53;;;;;;;73.10;34.63;;;-0.80;99.90;;;;;;4174777;28;20079;-64
2021/01/22 05:02:54;;;;;;;75.70;36.03;;;-0.80;99.90;;;;;;4173481;28;20262;-64
2021/01/22 05:04:57;;;;;;;79.23;38.90;;;-0.80;99.90;;;;;;4175281;28;20316;-65
2021/01/22 05:06:58;;;;;;;82.80;39.67;;;-0.80;99.90;;;;;;4173867;28;20273;-65
2021/01/22 05:09:00;;;;;;;96.67;44.10;;;-0.90;99.90;;;;;;4175147;28;20744;-65
2021/01/22 05:11:01;;;;;;;103.23;47.73;;;-0.90;99.90;;;;;;4173996;28;20270;-64
2021/01/22 05:13:02;;;;;;;107.97;47.77;;;-1.10;99.90;;;;;;4174565;28;20689;-63
2021/01/22 05:15:20;;;;;;;105.47;47.97;;;-1.20;99.90;;;;;;4172971;28;20351;-65
2021/01/22 05:17:21;;;;;;;108.97;48.07;;;-1.30;99.90;;;;;;4174525;28;20278;-65
2021/01/22 05:19:22;;;;;;;103.33;47.93;;;-1.20;99.90;;;;;;4173857;28;20270;-64
2021/01/22 05:21:37;;;;;;;99.43;44.70;;;-1.20;99.90;;;;;;4173667;28;20269;-64
2021/01/22 05:23:40;;;;;;;73.07;38.17;;;-1.20;99.90;;;;;;4171962;28;20332;-62
2021/01/22 05:26:05;;;;;;;86.37;43.50;;;-1.10;99.90;;;;;;4174294;28;20319;-63
2021/01/22 05:28:07;;;;;;;85.27;39.53;;;-1.10;99.90;;;;;;4173902;28;20316;-62
2021/01/22 05:30:09;;;;;;;69.20;36.13;;;-1.10;99.90;;;;;;4173832;28;20742;-63
2021/01/22 05:32:26;;;;;;;84.23;38.53;;;-1.10;99.90;;;;;;4173994;28;20332;-62
2021/01/22 05:34:47;;;;;;;77.37;36.03;;;-1.10;99.90;;;;;;4174096;28;20447;-63
2021/01/22 05:36:49;;;;;;;;;;;-1.00;99.90;;;;;;4172676;28;20281;-62
2021/01/22 05:38:51;;;;;;;77.67;36.37;;;-1.00;99.90;;;;;;4173797;28;19920;-62
2021/01/22 05:40:53;;;;;;;78.73;35.17;;;-1.00;99.90;;;;;;4173984;28;20320;-62
2021/01/22 05:42:56;;;;;;;73.97;36.20;;;-1.00;99.90;;;;;;4173515;28;20344;-61
2021/01/22 05:44:57;;;;;;;75.83;36.00;;;-1.00;99.90;;;;;;4172063;28;20266;-62
2021/01/22 05:47:00;;;;;;;71.67;35.53;;;-1.00;99.90;;;;;;4173209;28;20827;-62
2021/01/22 05:49:12;;;;;;;65.93;33.00;;;-1.00;99.90;;;;;;4174088;28;20262;-62
2021/01/22 05:51:14;;;;;;;68.87;34.20;;;-0.90;99.90;;;;;;4171737;28;20282;-62
2021/01/22 05:53:17;;;;;;;77.87;37.87;;;-0.90;99.90;;;;;;4173670;28;20274;-63
2021/01/22 05:55:20;;;;;;;76.47;38.00;;;-0.90;99.90;;;;;;4172801;28;20258;-63
2021/01/22 05:57:24;;;;;;;83.53;38.47;;;-0.90;99.90;;;;;;4174002;28;20265;-63
2021/01/22 05:59:25;;;;;;;75.73;37.00;;;-0.90;99.90;;;;;;4172559;28;20267;-63
2021/01/22 06:01:28;;;;;;;86.10;40.43;;;-0.90;99.90;;;;;;4173670;28;20266;-63
2021/01/22 06:03:29;;;;;;;84.30;43.43;;;-0.90;99.90;;;;;;4171975;28;20286;-65
2021/01/22 06:05:30;;;;;;;88.63;42.43;;;-0.90;99.90;;;;;;4173197;28;20282;-63
2021/01/22 06:07:31;;;;;;;83.73;40.53;;;-1.00;99.90;;;;;;4171748;28;20750;-63
2021/01/22 06:09:34;;;;;;;82.30;39.90;;;-1.00;99.90;;;;;;4173858;28;20339;-62
2021/01/22 06:11:35;;;;;;;90.10;42.57;;;-1.10;99.90;;;;;;4171519;28;20316;-63
2021/01/22 06:13:38;;;;;;;86.87;39.90;;;-1.10;99.90;;;;;;4173529;28;20286;-63
2021/01/22 06:15:40;;;;;;;87.83;43.93;;;-1.10;99.90;;;;;;4172147;28;20281;-63
2021/01/22 06:17:47;;;;;;;90.33;42.23;;;-1.10;99.90;;;;;;4172029;28;20266;-63
2021/01/22 06:19:48;;;;;;;85.53;43.20;;;-1.10;99.90;;;;;;4172418;28;20324;-62
2021/01/22 06:22:00;;;;;;;100.77;49.23;;;-1.10;99.90;;;;;;4170730;28;20273;-63
2021/01/22 06:24:03;;;;;;;98.10;51.60;;;-1.10;99.90;;;;;;4172128;28;20285;-63
2021/01/22 06:26:05;;;;;;;93.20;46.50;;;-1.10;99.90;;;;;;4171744;28;20282;-63
2021/01/22 06:28:08;;;;;;;91.93;45.07;;;-1.00;99.90;;;;;;4171303;28;20274;-63
2021/01/22 06:30:10;;;;;;;84.50;42.10;;;-1.00;99.90;;;;;;4171541;28;20262;-63
2021/01/22 06:32:12;;;;;;;78.80;39.53;;;-1.00;99.90;;;;;;4173171;28;20266;-63
2021/01/22 06:34:16;;;;;;;79.17;39.87;;;-0.90;99.90;;;;;;4172171;28;20317;-63
2021/01/22 06:36:17;;;;;;;84.37;41.90;;;-0.90;99.90;;;;;;4173810;28;20351;-63
2021/01/22 06:38:22;;;;;;;84.03;40.37;;;-0.80;99.90;;;;;;4172508;28;20320;-63
2021/01/22 06:40:25;;;;;;;95.67;47.17;;;-0.60;99.90;;;;;;4173379;28;20270;-63
2021/01/22 06:42:26;;;;;;;97.47;47.03;;;-0.40;99.90;;;;;;4172060;28;20273;-63
2021/01/22 06:44:28;;;;;;;103.13;48.90;;;-0.20;99.90;;;;;;4173720;28;20396;-64
2021/01/22 06:46:32;;;;;;;116.87;53.07;;;0.20;99.90;;;;;;4171020;28;20266;-62
2021/01/22 06:49:08;;;;;;;88.97;45.43;;;0.40;99.90;;;;;;4173826;28;20308;-62
2021/01/22 06:51:17;;;;;;;90.70;43.60;;;1.00;99.90;;;;;;4136911;28;20644;-64
2021/01/22 06:53:18;;;;;;;75.40;41.00;;;1.40;99.90;;;;;;4152313;28;20282;-63
2021/01/22 06:55:19;;;;;;;78.47;39.40;;;1.70;99.90;;;;;;4172578;28;20375;-63
2021/01/22 06:57:20;;;;;;;70.33;36.40;;;2.00;99.90;;;;;;4173918;28;20339;-64
2021/01/22 06:59:22;;;;;;;68.30;35.67;;;2.20;99.90;;;;;;4171993;28;20752;-63
2021/01/22 07:01:33;;;;;;;97.00;51.57;;;2.50;99.90;;;;;;4172810;28;20730;-63
2021/01/22 07:03:46;;;;;;;99.93;52.37;;;2.50;99.90;;;;;;4171974;28;20693;-62
2021/01/22 07:05:47;;;;;;;97.10;52.87;;;2.50;99.90;;;;;;4174041;28;20278;-63
2021/01/22 07:07:48;;;;;;;130.67;65.47;;;2.50;99.90;;;;;;4171963;28;20733;-64
2021/01/22 07:09:50;;;;;;;99.33;55.67;;;2.20;99.90;;;;;;4173113;28;20324;-62
2021/01/22 07:11:54;;;;;;;99.47;50.77;;;2.20;99.90;;;;;;4172356;28;20335;-64
2021/01/22 07:13:55;;;;;;;102.23;54.33;;;2.50;99.90;;;;;;4172687;28;20294;-62
2021/01/22 07:16:01;;;;;;;118.83;60.73;;;3.10;99.90;;;;;;4172232;28;20649;-62
2021/01/22 07:18:04;;;;;;;127.70;62.80;;;3.40;99.90;;;;;;4172577;28;20316;-63
2021/01/22 07:20:09;;;;;;;111.13;57.00;;;3.70;99.90;;;;;;4172845;28;20274;-63
2021/01/22 07:22:15;;;;;;;118.37;62.57;;;3.80;99.90;;;;;;4171804;28;20099;-63
2021/01/22 07:24:18;;;;;;;85.10;48.20;;;4.10;99.90;;;;;;4173473;28;20059;-63
2021/01/22 07:26:19;;;;;;;97.50;53.57;;;4.10;99.90;;;;;;4171449;28;20136;-63
2021/01/22 07:28:22;;;;;;;78.57;43.10;;;4.20;99.90;;;;;;4171709;28;20114;-63
2021/01/22 07:30:36;;;;;;;74.17;42.83;;;4.30;99.90;;;;;;4171884;28;20106;-62
2021/01/22 07:32:38;;;;;;;88.53;48.97;;;4.20;99.90;;;;;;4173124;28;20033;-64
2021/01/22 07:34:48;;;;;;;80.13;45.90;;;4.40;99.90;;;;;;4171842;28;20146;-63
2021/01/22 07:36:51;;;;;;;82.40;46.15;;;4.50;99.90;;;;;;4173258;28;20033;-63
2021/01/22 07:38:52;;;;;;;80.97;45.83;;;4.20;99.90;;;;;;4173041;28;20024;-63
2021/01/22 07:40:55;;;;;;;88.93;51.07;;;3.90;99.90;;;;;;4175984;28;20094;-63
2021/01/22 07:42:56;;;;;;;92.10;51.87;;;3.60;99.90;;;;;;4174856;28;20071;-63
2021/01/22 07:45:08;;;;;;;89.93;52.53;;;3.70;99.90;;;;;;4176057;28;20091;-62
2021/01/22 07:47:11;;;;;;;91.73;53.17;;;3.80;99.90;;;;;;4174567;28;20025;-63
2021/01/22 07:49:12;;;;;;;84.40;47.23;;;3.90;99.90;;;;;;4175732;28;20058;-63
2021/01/22 07:51:46;;;;;;;88.20;47.47;;;4.20;99.90;;;;;;4174637;28;20033;-64
2021/01/22 07:53:56;;;;;;;66.20;38.03;;;4.20;99.90;;;;;;4152357;28;20090;-62
2021/01/22 07:55:57;;;;;;;56.97;30.20;;;4.30;99.90;;;;;;4174890;28;20032;-63
2021/01/22 07:58:05;;;;;;;44.00;24.53;;;4.30;99.90;;;;;;4175848;28;20087;-63
2021/01/22 08:00:08;;;;;;;46.77;25.00;;;4.20;99.90;;;;;;4174280;28;20441;-63
2021/01/22 08:02:30;;;;;;;35.10;20.70;;;4.20;99.90;;;;;;4176052;28;20049;-62
2021/01/22 08:04:33;;;;;;;39.27;21.93;;;4.40;99.90;;;;;;4173308;28;20764;-62
2021/01/22 08:06:48;;;;;;;32.33;17.83;;;4.50;99.90;;;;;;4175660;28;20052;-63
2021/01/22 08:09:06;;;;;;;33.97;19.60;;;4.50;99.90;;;;;;4173224;28;20774;-62
2021/01/22 08:11:20;;;;;;;30.33;17.47;;;4.30;99.90;;;;;;4175636;28;20274;-62
2021/01/22 08:13:21;;;;;;;33.33;17.93;;;4.30;99.90;;;;;;4174406;28;20274;-63
2021/01/22 08:15:23;;;;;;;35.37;18.77;;;4.20;99.90;;;;;;4175266;28;20293;-61
2021/01/22 08:17:25;;;;;;;30.70;18.43;;;4.20;99.90;;;;;;4174317;28;20315;-62
2021/01/22 08:19:27;;;;;;;33.47;19.37;;;4.10;99.90;;;;;;4175316;28;20335;-63
2021/01/22 08:21:30;;;;;;;34.20;19.20;;;4.10;99.90;;;;;;4174071;28;20376;-62
2021/01/22 08:23:32;;;;;;;39.70;19.10;;;4.30;99.90;;;;;;4175786;28;21118;-61
2021/01/22 08:25:38;;;;;;;31.30;18.17;;;4.30;99.90;;;;;;4174300;28;20262;-62
2021/01/22 08:27:40;;;;;;;32.43;19.67;;;4.30;99.90;;;;;;4175711;28;20270;-62
2021/01/22 08:29:43;;;;;;;33.97;18.57;;;4.30;99.90;;;;;;4174466;28;20242;-62
2021/01/22 08:31:46;;;;;;;33.57;17.53;;;4.30;99.90;;;;;;4174398;28;20316;-62
2021/01/22 08:33:48;;;;;;;30.87;18.87;;;4.40;99.90;;;;;;4174698;28;20328;-62
2021/01/22 08:35:50;;;;;;;33.33;18.00;;;4.30;99.90;;;;;;4174195;28;20274;-62
2021/01/22 08:37:55;;;;;;;32.90;17.97;;;4.30;99.90;;;;;;4175075;28;20282;-61
2021/01/22 08:39:59;;;;;;;31.33;17.13;;;4.40;99.90;;;;;;4173882;28;20396;-61
2021/01/22 08:42:12;;;;;;;35.57;17.93;;;4.30;99.90;;;;;;4174735;28;20290;-62
2021/01/22 08:44:14;;;;;;;39.47;19.77;;;4.20;99.90;;;;;;4173313;28;20673;-63
2021/01/22 08:46:16;;;;;;;34.40;18.47;;;4.10;99.90;;;;;;4174748;28;20270;-62
2021/01/22 08:48:17;;;;;;;39.87;20.73;;;4.00;99.90;;;;;;4173503;28;20343;-63
2021/01/22 08:50:20;;;;;;;42.40;20.50;;;4.00;99.90;;;;;;4175489;28;20761;-62
2021/01/22 08:52:21;;;;;;;36.60;19.87;;;4.00;99.90;;;;;;4174095;28;20323;-62
2021/01/22 08:54:36;;;;;;;31.90;17.47;;;4.00;99.90;;;;;;4174983;28;20313;-63
2021/01/22 08:56:38;;;;;;;33.57;19.77;;;4.00;99.90;;;;;;4174308;28;20319;-61
2021/01/22 08:59:02;;;;;;;38.10;19.03;;;4.10;99.90;;;;;;4175125;28;20269;-62
2021/01/22 09:01:03;;;;;;;41.13;20.40;;;4.20;99.90;;;;;;4173531;28;20296;-62
2021/01/22 09:03:25;;;;;;;33.27;18.27;;;4.10;99.90;;;;;;4173148;28;20805;-63
2021/01/22 09:05:27;;;;;;;34.00;19.10;;;4.20;99.90;;;;;;4173354;28;20270;-62
2021/01/22 09:07:28;;;;;;;34.93;20.43;;;4.30;99.90;;;;;;4174486;28;20657;-62
2021/01/22 09:09:40;;;;;;;37.73;20.37;;;4.40;99.90;;;;;;4173717;28;20338;-62
2021/01/22 09:11:41;;;;;;;33.23;18.70;;;4.50;99.90;;;;;;4174591;28;20726;-62
2021/01/22 09:13:54;;;;;;;32.07;18.73;;;4.60;99.90;;;;;;4173133;28;20316;-63
2021/01/22 09:16:03;;;;;;;32.17;18.53;;;4.70;99.90;;;;;;4174068;28;20298;-63
2021/01/22 09:18:25;;;;;;;26.97;15.00;;;4.70;99.90;;;;;;4173419;28;20324;-62
2021/01/22 09:20:28;;;;;;;33.00;18.47;;;4.70;99.90;;;;;;4174751;28;20274;-63
2021/01/22 09:22:31;;;;;;;31.53;17.77;;;4.70;99.90;;;;;;4173185;28;20324;-64
2021/01/22 09:24:32;;;;;;;29.67;17.63;;;4.70;99.90;;;;;;4174492;28;20270;-63
2021/01/22 09:26:33;;;;;;;33.33;17.23;;;4.60;99.90;;;;;;4173280;28;20258;-63
2021/01/22 09:28:34;;;;;;;36.17;18.00;;;4.70;99.90;;;;;;4174300;28;20266;-63
2021/01/22 09:30:36;;;;;;;29.37;16.63;;;4.70;99.90;;;;;;4172855;28;20266;-63
2021/01/22 09:32:38;;;;;;;32.90;16.57;;;4.70;99.90;;;;;;4173908;28;21094;-63
2021/01/22 09:34:40;;;;;;;33.87;17.03;;;4.60;99.90;;;;;;4173429;28;20305;-62
2021/01/22 09:36:41;;;;;;;33.93;17.57;;;4.60;99.90;;;;;;4172645;28;20360;-61
2021/01/22 09:38:42;;;;;;;31.30;16.93;;;4.60;99.90;;;;;;4173791;28;20813;-62
2021/01/22 09:40:43;;;;;;;36.60;18.73;;;4.70;99.90;;;;;;4173104;28;20269;-61
2021/01/22 09:42:45;;;;;;;31.63;17.83;;;4.80;99.90;;;;;;4174072;28;20390;-63
2021/01/22 09:44:46;;;;;;;30.00;16.53;;;4.80;99.90;;;;;;4172488;28;20308;-62
2021/01/22 09:46:47;;;;;;;36.10;18.23;;;4.70;99.90;;;;;;4174560;28;20347;-63
2021/01/22 09:48:48;;;;;;;37.57;18.47;;;4.70;99.90;;;;;;4172970;28;20397;-64
2021/01/22 09:50:50;;;;;;;37.37;18.60;;;4.70;99.90;;;;;;4172285;28;20270;-63
2021/01/22 09:52:51;;;;;;;31.93;17.07;;;4.80;99.90;;;;;;4172559;28;20262;-63
2021/01/22 09:54:54;;;;;;;30.00;17.30;;;4.80;99.90;;;;;;4174107;28;20277;-64
2021/01/22 09:56:56;;;;;;;30.00;16.97;;;4.80;99.90;;;;;;4172844;28;20262;-63
2021/01/22 09:58:57;;;;;;;31.03;17.77;;;4.90;99.90;;;;;;4174055;28;20400;-63
2021/01/22 10:00:58;;;;;;;35.60;16.63;;;4.90;99.90;;;;;;4172641;28;20278;-63
2021/01/22 10:02:59;;;;;;;31.67;16.70;;;4.90;99.90;;;;;;4173107;28;20312;-63
2021/01/22 10:05:02;;;;;;;34.07;17.97;;;5.00;99.90;;;;;;4172953;28;20323;-63
2021/01/22 10:07:05;;;;;;;33.43;16.47;;;5.00;99.90;;;;;;4173182;28;20282;-63
2021/01/22 10:09:09;;;;;;;28.50;16.77;;;5.00;99.90;;;;;;4173525;28;20313;-63
2021/01/22 10:11:11;;;;;;;31.43;18.10;;;4.90;99.90;;;;;;4173083;28;20282;-62
2021/01/22 10:13:12;;;;;;;35.73;18.17;;;5.00;99.90;;;;;;4173685;28;20270;-64
2021/01/22 10:15:13;;;;;;;30.97;17.53;;;4.90;99.90;;;;;;4172130;28;20370;-62
2021/01/22 10:17:16;;;;;;;34.27;18.53;;;4.90;99.90;;;;;;4173551;28;20331;-63
2021/01/22 10:19:19;;;;;;;35.53;18.33;;;4.90;99.90;;;;;;4172266;28;21314;-62
2021/01/22 10:21:21;;;;;;;30.83;17.40;;;5.00;99.90;;;;;;4173611;28;20328;-62
2021/01/22 10:23:22;;;;;;;32.87;18.30;;;5.00;99.90;;;;;;4172355;28;20357;-62
2021/01/22 10:25:23;;;;;;;31.50;18.30;;;5.00;99.90;;;;;;4173007;28;20282;-64
2021/01/22 10:27:24;;;;;;;36.13;20.23;;;5.00;99.90;;;;;;4173187;28;20274;-63